Time;durP1;ratioP1;P1;durP2;ratioP2;P2;SDS_P1;SDS_P2;PMS_P1;PMS_P2;Temp;Humidity;BMP_temperature;BMP_pressure;BME280_temperature;BME280_humidity;BME280_pressure;Samples;Min_cycle;Max_cycle;Signal;HPM_P1;HPM_P2
2022/08/18 00:01:49;;;;;;;2.15;1.95;;;17.20;61.40;;;;;;5045895;28;20196;-38
2022/08/18 00:04:20;;;;;;;3.58;2.55;;;17.30;61.60;;;;;;5051017;28;20206;-43
2022/08/18 00:06:51;;;;;;;2.30;2.10;;;17.30;61.60;;;;;;5049711;28;20737;-39
2022/08/18 00:09:23;;;;;;;2.35;2.10;;;17.30;61.60;;;;;;5051359;28;20567;-38
2022/08/18 00:11:54;;;;;;;2.70;2.30;;;17.30;61.60;;;;;;5031315;28;20223;-37
2022/08/18 00:14:25;;;;;;;3.50;2.40;;;17.30;61.70;;;;;;5032390;28;20204;-37
2022/08/18 00:16:56;;;;;;;2.60;2.22;;;17.30;61.80;;;;;;5030962;28;20726;-36
2022/08/18 00:19:28;;;;;;;2.40;2.10;;;17.30;61.80;;;;;;5032694;28;20203;-38
2022/08/18 00:21:59;;;;;;;2.70;2.00;;;17.30;61.70;;;;;;5030882;28;20204;-42
2022/08/18 00:24:34;;;;;;;2.75;2.20;;;17.40;61.70;;;;;;5029608;28;20207;-36
2022/08/18 00:27:05;;;;;;;3.55;2.08;;;17.40;61.60;;;;;;5030419;28;20303;-36
2022/08/18 00:29:36;;;;;;;2.50;2.30;;;17.40;61.60;;;;;;5045226;28;20203;-40
2022/08/18 00:32:15;;;;;;;2.97;2.38;;;17.40;61.70;;;;;;5047045;28;20195;-37
2022/08/18 00:34:46;;;;;;;3.08;2.20;;;17.50;61.70;;;;;;5048199;28;20195;-36
2022/08/18 00:37:17;;;;;;;2.30;2.10;;;17.40;61.80;;;;;;5029248;28;20219;-37
2022/08/18 00:39:51;;;;;;;2.35;2.10;;;17.40;61.90;;;;;;5030694;28;20191;-39
2022/08/18 00:42:24;;;;;;;2.65;2.13;;;17.40;62.00;;;;;;5029753;28;20217;-39
2022/08/18 00:44:55;;;;;;;2.30;2.10;;;17.50;62.00;;;;;;5029656;28;20261;-39
2022/08/18 00:47:27;;;;;;;2.65;2.10;;;17.50;61.80;;;;;;5030418;28;20216;-54
2022/08/18 00:49:58;;;;;;;2.10;1.90;;;17.50;61.70;;;;;;5030807;28;20568;-36
2022/08/18 00:52:29;;;;;;;2.90;2.10;;;17.50;61.90;;;;;;5048876;28;20649;-36
2022/08/18 00:55:02;;;;;;;3.03;2.25;;;17.50;61.80;;;;;;5049699;28;20195;-37
2022/08/18 00:57:34;;;;;;;2.13;1.92;;;17.50;61.70;;;;;;5044044;28;20291;-37
2022/08/18 01:00:10;;;;;;;2.63;2.17;;;17.60;61.70;;;;;;5029977;28;20203;-38
2022/08/18 01:02:47;;;;;;;2.40;2.20;;;17.60;61.70;;;;;;5046473;28;20199;-36
2022/08/18 01:05:23;;;;;;;2.10;1.90;;;17.60;61.80;;;;;;5029558;28;20187;-42
2022/08/18 01:07:55;;;;;;;2.58;2.13;;;17.60;61.90;;;;;;5030623;28;20582;-36
2022/08/18 01:10:27;;;;;;;3.08;2.40;;;17.60;61.90;;;;;;5029113;28;20571;-39
2022/08/18 01:12:59;;;;;;;2.22;2.03;;;17.60;61.80;;;;;;5029286;28;20242;-36
2022/08/18 01:15:31;;;;;;;2.17;1.98;;;17.60;61.70;;;;;;5029739;28;20184;-38
2022/08/18 01:23:46;;;;;;;2.63;1.98;;;17.70;61.60;;;;;;5029803;28;20326;-37
2022/08/18 01:26:16;;;;;;;2.58;2.25;;;17.70;61.60;;;;;;5045544;28;20203;-37
2022/08/18 01:28:49;;;;;;;2.55;2.10;;;17.60;61.50;;;;;;5049548;28;20214;-41
2022/08/18 01:31:37;;;;;;;2.58;2.38;;;17.70;61.60;;;;;;5038446;28;20671;-37
2022/08/18 01:34:09;;;;;;;2.40;2.13;;;17.70;62.40;;;;;;5028880;28;20230;-36
2022/08/18 01:36:42;;;;;;;2.67;2.30;;;17.70;61.60;;;;;;5029894;28;20192;-37
2022/08/18 01:39:16;;;;;;;2.60;2.40;;;17.70;61.60;;;;;;5029740;28;20200;-37
2022/08/18 01:41:47;;;;;;;2.33;2.13;;;17.70;61.60;;;;;;5035108;28;20227;-41
2022/08/18 01:44:18;;;;;;;2.80;2.45;;;17.70;61.60;;;;;;5050150;28;20217;-44
2022/08/18 01:46:51;;;;;;;2.13;1.92;;;17.70;61.60;;;;;;5049253;28;20215;-38
2022/08/18 01:49:27;;;;;;;2.22;2.03;;;17.70;61.50;;;;;;5049844;28;20199;-36
2022/08/18 01:52:00;;;;;;;2.17;1.98;;;17.70;61.50;;;;;;5033699;28;20230;-36
2022/08/18 01:54:33;;;;;;;2.45;1.90;;;17.70;61.50;;;;;;5029592;28;20224;-42
2022/08/18 01:57:04;;;;;;;2.30;2.10;;;17.70;61.50;;;;;;5030433;28;20208;-36
2022/08/18 01:59:35;;;;;;;2.45;2.25;;;17.70;61.50;;;;;;5048327;28;20198;-37
2022/08/18 02:02:06;;;;;;;3.10;2.38;;;17.70;61.50;;;;;;5040709;28;20200;-36
2022/08/18 02:04:37;;;;;;;2.85;2.45;;;17.70;61.50;;;;;;5029310;28;20203;-37
2022/08/18 02:07:10;;;;;;;3.45;2.20;;;17.70;61.50;;;;;;5029073;28;20613;-37
2022/08/18 02:09:44;;;;;;;2.80;2.45;;;17.70;61.40;;;;;;5029329;28;20574;-41
2022/08/18 02:12:15;;;;;;;2.55;2.35;;;17.70;61.50;;;;;;5029552;28;20188;-36
2022/08/18 02:14:46;;;;;;;2.15;2.00;;;17.70;61.40;;;;;;5031527;28;20568;-39
2022/08/18 02:17:17;;;;;;;2.30;2.10;;;17.80;61.50;;;;;;5033419;28;20242;-36
2022/08/18 02:19:49;;;;;;;2.40;2.20;;;17.70;61.40;;;;;;5035982;28;20195;-41
2022/08/18 02:22:22;;;;;;;2.35;2.15;;;17.80;61.50;;;;;;5033270;28;20207;-36
2022/08/18 02:24:54;;;;;;;2.53;2.17;;;17.80;61.40;;;;;;5033010;28;20204;-36
2022/08/18 02:27:25;;;;;;;2.67;2.10;;;17.70;61.40;;;;;;5039998;28;20211;-42
2022/08/18 02:29:56;;;;;;;2.50;2.15;;;17.80;61.40;;;;;;5053202;28;20192;-36
2022/08/18 02:32:27;;;;;;;2.15;2.00;;;17.80;61.40;;;;;;5033344;28;20287;-36
2022/08/18 02:34:58;;;;;;;2.85;2.30;;;17.80;61.40;;;;;;5036160;28;20200;-37
2022/08/18 02:37:29;;;;;;;2.58;2.30;;;17.80;61.50;;;;;;5051982;28;20215;-36
2022/08/18 02:40:02;;;;;;;2.75;2.35;;;17.80;61.40;;;;;;5048836;28;20196;-36
2022/08/18 02:42:33;;;;;;;2.50;2.30;;;17.80;61.40;;;;;;5047005;28;20234;-36
2022/08/18 02:45:04;;;;;;;2.50;2.22;;;17.80;61.50;;;;;;5031788;28;20690;-36
2022/08/18 02:47:35;;;;;;;2.30;2.05;;;17.80;61.50;;;;;;5032226;28;20220;-36
2022/08/18 02:50:06;;;;;;;2.30;2.10;;;17.80;61.40;;;;;;5033577;28;20188;-38
2022/08/18 02:52:38;;;;;;;2.35;2.15;;;17.80;61.40;;;;;;5031817;28;20250;-36
2022/08/18 02:55:12;;;;;;;2.53;2.33;;;17.80;61.50;;;;;;5050342;28;20882;-40
2022/08/18 02:57:45;;;;;;;2.30;2.10;;;17.80;61.40;;;;;;5051179;28;20245;-36
2022/08/18 03:00:18;;;;;;;2.47;2.28;;;17.80;61.40;;;;;;5051184;28;20196;-38
2022/08/18 03:02:50;;;;;;;2.15;1.88;;;17.80;61.30;;;;;;5051057;28;20199;-37
2022/08/18 03:05:21;;;;;;;3.10;2.53;;;17.80;61.40;;;;;;5050988;28;20561;-40
2022/08/18 03:07:52;;;;;;;2.35;2.15;;;17.80;61.30;;;;;;5048695;28;20227;-37
2022/08/18 03:10:25;;;;;;;3.78;2.58;;;17.80;61.30;;;;;;5031913;28;20192;-39
2022/08/18 03:12:56;;;;;;;2.30;2.10;;;17.80;61.30;;;;;;5032418;28;20582;-38
2022/08/18 03:15:26;;;;;;;2.30;2.08;;;17.80;61.30;;;;;;5031517;28;20283;-38
2022/08/18 03:17:57;;;;;;;2.40;2.20;;;17.80;61.30;;;;;;5032434;28;20303;-39
2022/08/18 03:20:28;;;;;;;2.20;2.00;;;17.80;61.30;;;;;;5031398;28;20184;-36
2022/08/18 03:22:59;;;;;;;2.33;2.08;;;17.80;61.30;;;;;;5031604;28;20203;-37
2022/08/18 03:25:31;;;;;;;2.70;2.28;;;17.80;61.30;;;;;;5050547;28;20270;-40
2022/08/18 03:28:03;;;;;;;2.70;2.22;;;17.80;61.20;;;;;;5051567;28;20227;-43
2022/08/18 03:30:34;;;;;;;2.20;2.00;;;17.80;61.30;;;;;;5047363;28;20725;-40
2022/08/18 03:33:05;;;;;;;2.53;2.15;;;17.90;61.30;;;;;;5051085;28;20584;-38
2022/08/18 03:35:37;;;;;;;3.00;2.38;;;17.80;61.20;;;;;;5046205;28;20211;-38
2022/08/18 03:38:08;;;;;;;2.50;2.30;;;17.90;61.30;;;;;;5031031;28;20959;-37
2022/08/18 03:40:42;;;;;;;2.35;2.00;;;17.90;61.30;;;;;;5030941;28;20338;-37
2022/08/18 03:43:13;;;;;;;2.35;2.15;;;17.80;61.20;;;;;;5031975;28;20200;-38
2022/08/18 03:45:43;;;;;;;2.40;2.10;;;17.90;61.20;;;;;;5049996;28;20192;-43
2022/08/18 03:48:15;;;;;;;3.50;2.20;;;17.90;61.30;;;;;;5050576;28;20224;-39
2022/08/18 03:50:46;;;;;;;3.67;2.15;;;17.90;61.20;;;;;;5050472;28;20752;-37
2022/08/18 03:53:18;;;;;;;2.35;2.13;;;17.90;61.30;;;;;;5044676;28;20578;-37
2022/08/18 03:55:50;;;;;;;3.42;2.72;;;17.90;61.30;;;;;;5031241;28;20185;-39
2022/08/18 03:58:21;;;;;;;2.50;2.30;;;17.90;61.30;;;;;;5047778;28;20226;-38
2022/08/18 04:00:52;;;;;;;2.15;1.95;;;17.90;61.30;;;;;;5043981;28;20282;-38
2022/08/18 04:03:23;;;;;;;2.10;1.90;;;18.00;61.40;;;;;;5030436;28;20299;-38
2022/08/18 04:05:54;;;;;;;2.13;1.92;;;18.00;61.40;;;;;;5031366;28;20185;-37
2022/08/18 04:08:24;;;;;;;2.20;2.00;;;18.00;61.40;;;;;;5030375;28;20242;-37
2022/08/18 04:10:57;;;;;;;2.75;2.10;;;17.90;61.30;;;;;;5030837;28;20196;-43
2022/08/18 04:13:28;;;;;;;3.20;2.30;;;18.00;61.40;;;;;;5031090;28;20996;-45
2022/08/18 04:16:02;;;;;;;2.53;2.33;;;17.90;61.30;;;;;;5033443;28;20188;-38
2022/08/18 04:18:32;;;;;;;2.30;2.10;;;17.90;61.30;;;;;;5030752;28;20218;-50
2022/08/18 04:21:06;;;;;;;2.60;2.10;;;17.90;61.30;;;;;;5035466;28;20203;-49
2022/08/18 04:26:36;;;;;;;2.75;2.28;;;18.00;61.20;;;;;;5048881;28;20192;-49
2022/08/18 04:29:08;;;;;;;5.03;3.72;;;17.90;61.20;;;;;;5049717;28;20207;-47
2022/08/18 04:31:39;;;;;;;5.95;3.80;;;18.00;61.20;;;;;;5033267;28;20274;-38
2022/08/18 04:34:11;;;;;;;7.35;3.88;;;18.00;61.20;;;;;;5030355;28;20220;-37
2022/08/18 04:36:42;;;;;;;6.68;3.88;;;18.00;62.00;;;;;;5029839;28;20196;-36
2022/08/18 04:39:14;;;;;;;5.53;3.95;;;18.00;62.60;;;;;;5028957;28;20200;-36
2022/08/18 04:41:47;;;;;;;10.00;4.30;;;18.10;63.30;;;;;;5030709;28;20196;-40
2022/08/18 04:44:18;;;;;;;8.85;4.40;;;18.20;64.00;;;;;;5048192;28;20217;-36
2022/08/18 04:46:52;;;;;;;6.38;4.30;;;18.20;63.90;;;;;;5050051;28;20221;-37
2022/08/18 04:49:32;;;;;;;8.13;4.43;;;18.30;63.70;;;;;;5035077;28;20257;-41
2022/08/18 04:54:50;;;;;;;10.65;4.45;;;18.40;63.40;;;;;;5028712;28;20365;-38
2022/08/18 04:57:25;;;;;;;6.65;5.03;;;18.40;63.40;;;;;;5031876;28;20652;-45
2022/08/18 04:59:59;;;;;;;9.02;4.03;;;18.40;63.30;;;;;;5031306;28;20199;-40
2022/08/18 05:02:31;;;;;;;6.10;4.60;;;18.40;63.10;;;;;;5035858;28;20291;-42
2022/08/18 05:05:02;;;;;;;9.35;4.50;;;18.30;63.10;;;;;;5043634;28;20204;-37
2022/08/18 05:07:33;;;;;;;7.53;4.45;;;18.40;63.10;;;;;;5027645;28;20243;-42
2022/08/18 05:10:04;;;;;;;8.75;4.60;;;18.30;62.90;;;;;;5028706;28;20206;-39
2022/08/18 05:12:37;;;;;;;8.13;4.80;;;18.30;62.90;;;;;;5027782;28;20196;-41
2022/08/18 05:15:08;;;;;;;10.55;4.72;;;18.30;62.90;;;;;;5029449;28;20231;-37
2022/08/18 05:17:40;;;;;;;9.48;4.25;;;18.30;62.80;;;;;;5028119;28;20220;-44
2022/08/18 05:20:12;;;;;;;6.75;4.57;;;18.30;62.80;;;;;;5028569;28;20200;-37
2022/08/18 05:22:44;;;;;;;7.00;4.35;;;18.30;62.70;;;;;;5028643;28;20200;-40
2022/08/18 05:25:16;;;;;;;6.22;4.43;;;18.30;62.70;;;;;;5045184;28;20195;-45
2022/08/18 05:27:48;;;;;;;8.57;4.35;;;18.20;62.60;;;;;;5040252;28;20254;-37
2022/08/18 05:30:19;;;;;;;8.48;4.35;;;18.30;63.00;;;;;;5034919;28;20869;-36
2022/08/18 05:32:50;;;;;;;5.57;4.22;;;18.20;62.90;;;;;;5029525;28;20698;-42
2022/08/18 05:35:26;;;;;;;5.28;4.10;;;18.20;62.90;;;;;;5027086;28;20597;-41
2022/08/18 05:38:15;;;;;;;5.85;4.45;;;18.30;62.90;;;;;;5047836;28;20303;-36
2022/08/18 05:40:48;;;;;;;5.35;4.32;;;18.30;62.80;;;;;;5048361;28;20203;-37
2022/08/18 05:43:21;;;;;;;5.60;4.28;;;18.20;62.60;;;;;;5028169;28;20212;-36
2022/08/18 05:45:53;;;;;;;5.95;4.28;;;18.20;62.60;;;;;;5028479;28;20222;-39
2022/08/18 05:48:24;;;;;;;4.82;4.10;;;18.20;62.60;;;;;;5027785;28;20316;-37
2022/08/18 05:50:55;;;;;;;5.63;4.55;;;18.20;62.50;;;;;;5032254;28;20204;-43
2022/08/18 05:56:45;;;;;;;6.80;4.72;;;18.20;62.50;;;;;;5031677;28;20239;-40
2022/08/18 05:59:12;;;;;;;4.70;3.80;;;18.10;62.40;;;;;;5032191;28;20215;-37
2022/08/18 06:01:45;;;;;;;6.03;4.53;;;18.10;62.40;;;;;;5037166;28;20195;-36
2022/08/18 06:04:28;;;;;;;5.25;4.18;;;18.10;62.40;;;;;;5032285;28;20207;-36
2022/08/18 06:07:03;;;;;;;5.28;4.55;;;18.10;62.30;;;;;;5043500;28;20298;-40
2022/08/18 06:09:39;;;;;;;6.75;4.93;;;18.10;62.50;;;;;;5051588;28;20568;-36
2022/08/18 06:12:20;;;;;;;5.45;4.50;;;18.10;62.70;;;;;;5051093;28;20202;-40
2022/08/18 06:14:53;;;;;;;5.28;4.18;;;18.10;62.50;;;;;;5050947;28;20229;-48
2022/08/18 06:17:54;;;;;;;7.07;4.88;;;18.10;62.50;;;;;;5044774;28;20707;-36
2022/08/18 06:20:31;;;;;;;5.07;4.22;;;18.00;62.30;;;;;;5026095;28;20196;-41
2022/08/18 06:23:14;;;;;;;5.65;4.38;;;18.00;62.30;;;;;;5034906;28;20192;-46
2022/08/18 06:26:00;;;;;;;5.00;4.50;;;18.00;62.30;;;;;;5030894;28;20212;-39
2022/08/18 06:28:42;;;;;;;6.53;4.82;;;18.00;62.30;;;;;;5030724;28;20311;-37
2022/08/18 06:31:22;;;;;;;6.13;4.55;;;17.90;62.20;;;;;;5040002;28;20202;-36
2022/08/18 06:34:02;;;;;;;6.20;4.90;;;17.90;62.20;;;;;;5031322;28;20204;-36
2022/08/18 06:36:44;;;;;;;6.70;4.97;;;17.90;62.30;;;;;;5031173;28;20200;-36
2022/08/18 06:39:25;;;;;;;6.50;5.10;;;17.90;62.30;;;;;;5031530;28;20203;-36
2022/08/18 06:41:56;;;;;;;4.97;4.43;;;17.90;62.20;;;;;;5031086;28;20279;-36
2022/08/18 06:44:33;;;;;;;5.38;4.75;;;17.80;62.20;;;;;;5031267;28;20679;-36
2022/08/18 06:47:12;;;;;;;6.00;4.53;;;17.80;62.10;;;;;;5031467;28;20220;-36
2022/08/18 06:49:55;;;;;;;5.25;4.40;;;17.80;62.20;;;;;;5046633;28;20206;-50
2022/08/18 06:52:34;;;;;;;6.35;4.75;;;17.80;62.10;;;;;;5050558;28;20614;-36
2022/08/18 06:55:07;;;;;;;6.18;4.97;;;17.80;62.10;;;;;;5030639;28;20227;-36
2022/08/18 06:57:40;;;;;;;30.60;14.30;;;17.80;62.10;;;;;;5030224;28;20220;-37
2022/08/18 07:00:25;;;;;;;14.30;7.80;;;17.70;62.50;;;;;;5032318;28;20231;-36
2022/08/18 07:02:59;;;;;;;10.88;7.32;;;17.80;63.20;;;;;;5030512;28;20204;-36
2022/08/18 07:05:31;;;;;;;13.13;7.55;;;17.80;62.30;;;;;;5031028;28;20207;-36
2022/08/18 07:08:15;;;;;;;12.40;8.15;;;17.70;62.30;;;;;;5030819;28;20590;-36
2022/08/18 07:10:47;;;;;;;13.77;8.07;;;17.70;62.20;;;;;;5030626;28;20207;-36
2022/08/18 07:13:24;;;;;;;13.07;8.30;;;17.70;62.20;;;;;;5030658;28;20234;-35
2022/08/18 07:15:56;;;;;;;15.70;8.77;;;17.70;62.20;;;;;;5030729;28;20236;-36
2022/08/18 07:18:30;;;;;;;13.75;8.40;;;17.70;62.10;;;;;;5030903;28;20322;-36
2022/08/18 07:21:02;;;;;;;12.55;8.60;;;17.70;62.10;;;;;;5043197;28;20545;-37
2022/08/18 07:23:37;;;;;;;13.45;8.20;;;17.70;62.10;;;;;;5050700;28;20301;-36
2022/08/18 07:26:12;;;;;;;13.48;8.05;;;17.60;62.00;;;;;;5030704;28;20207;-36
2022/08/18 07:28:45;;;;;;;12.50;8.25;;;17.60;62.00;;;;;;5030239;28;20216;-38
2022/08/18 07:31:36;;;;;;;11.88;7.55;;;17.60;62.00;;;;;;5039590;28;20196;-37
2022/08/18 07:34:24;;;;;;;12.80;8.52;;;17.60;62.10;;;;;;5051496;28;20196;-36
2022/08/18 07:36:59;;;;;;;13.57;8.45;;;17.60;62.10;;;;;;5051873;28;20264;-36
2022/08/18 07:39:36;;;;;;;12.60;8.00;;;17.50;62.00;;;;;;5051792;28;20203;-39
2022/08/18 07:42:13;;;;;;;11.02;7.50;;;17.60;62.00;;;;;;5052222;28;20199;-39
2022/08/18 07:44:48;;;;;;;10.50;7.97;;;17.50;61.90;;;;;;5051864;28;20203;-40
2022/08/18 07:47:22;;;;;;;10.85;8.25;;;17.50;61.90;;;;;;5051575;28;20221;-36
2022/08/18 07:49:57;;;;;;;10.07;7.47;;;17.50;62.60;;;;;;5051681;28;20209;-36
2022/08/18 07:52:31;;;;;;;11.95;8.15;;;17.50;61.90;;;;;;5051275;28;20199;-35
2022/08/18 07:55:12;;;;;;;11.02;7.30;;;17.50;61.80;;;;;;5051136;28;20254;-37
2022/08/18 07:57:50;;;;;;;11.48;7.25;;;17.40;61.80;;;;;;5051446;28;20221;-36
2022/08/18 08:00:25;;;;;;;10.95;7.35;;;17.40;61.90;;;;;;5050903;28;20206;-36
2022/08/18 08:03:05;;;;;;;10.75;8.07;;;17.40;61.90;;;;;;5056966;28;20226;-36
2022/08/18 08:05:47;;;;;;;12.48;7.97;;;17.40;61.90;;;;;;5070716;28;20227;-35
2022/08/18 08:08:24;;;;;;;10.95;8.02;;;17.40;61.90;;;;;;5070942;28;20625;-36
2022/08/18 08:11:09;;;;;;;10.45;7.60;;;17.40;61.90;;;;;;5057674;28;20719;-35
2022/08/18 08:13:50;;;;;;;9.82;7.30;;;17.40;61.90;;;;;;5050831;28;20198;-35
2022/08/18 08:16:34;;;;;;;10.95;7.18;;;17.40;61.90;;;;;;5050881;28;20234;-35
2022/08/18 08:19:13;;;;;;;8.82;7.13;;;17.40;61.80;;;;;;5066577;28;20276;-36
2022/08/18 08:22:02;;;;;;;10.35;7.57;;;17.40;61.80;;;;;;5055156;28;20715;-35
2022/08/18 08:24:41;;;;;;;10.07;8.02;;;17.30;61.70;;;;;;5030069;28;20211;-36
2022/08/18 08:27:20;;;;;;;9.63;6.90;;;17.30;61.80;;;;;;5030518;28;20227;-36
2022/08/18 08:29:57;;;;;;;10.20;7.50;;;17.30;61.70;;;;;;5029939;28;20203;-36
2022/08/18 08:32:33;;;;;;;9.75;7.25;;;17.30;61.80;;;;;;5051406;28;20188;-44
2022/08/18 08:35:09;;;;;;;8.38;6.63;;;17.30;61.80;;;;;;5069657;28;20230;-39
2022/08/18 08:37:45;;;;;;;9.65;6.65;;;17.20;61.80;;;;;;5070397;28;20218;-38
2022/08/18 08:40:21;;;;;;;9.15;6.82;;;17.30;61.90;;;;;;5070649;28;20650;-36
2022/08/18 08:42:56;;;;;;;8.25;7.15;;;17.30;61.80;;;;;;5060306;28;20194;-36
2022/08/18 08:45:31;;;;;;;8.05;6.93;;;17.30;61.80;;;;;;5050462;28;20191;-36
2022/08/18 08:48:06;;;;;;;10.88;7.40;;;17.30;61.80;;;;;;5055839;28;20233;-40
2022/08/18 08:50:42;;;;;;;9.13;6.68;;;17.30;61.80;;;;;;5070605;28;20200;-37
2022/08/18 08:53:23;;;;;;;8.68;6.82;;;17.30;61.90;;;;;;5070557;28;20195;-35
2022/08/18 08:55:58;;;;;;;10.50;7.18;;;17.20;62.00;;;;;;5070233;28;20717;-39
2022/08/18 08:58:33;;;;;;;10.63;7.50;;;17.20;62.00;;;;;;5070125;28;20305;-36
2022/08/18 09:01:05;;;;;;;10.90;6.80;;;17.20;61.90;;;;;;5061250;28;20199;-35
2022/08/18 09:03:45;;;;;;;8.93;7.13;;;17.20;61.90;;;;;;5059026;28;20665;-36
2022/08/18 09:06:44;;;;;;;8.52;6.88;;;17.20;62.00;;;;;;5069665;28;20206;-46
2022/08/18 09:09:34;;;;;;;9.13;6.78;;;17.20;62.00;;;;;;5069905;28;20214;-45
2022/08/18 09:12:18;;;;;;;8.98;6.85;;;17.10;61.80;;;;;;5070095;28;20221;-36
2022/08/18 09:15:20;;;;;;;7.55;6.35;;;17.20;61.90;;;;;;5069723;28;20191;-36
2022/08/18 09:18:13;;;;;;;9.38;6.88;;;17.20;61.90;;;;;;5069212;28;21320;-36
2022/08/18 09:20:54;;;;;;;8.45;6.95;;;17.10;61.80;;;;;;5070055;28;20195;-36
2022/08/18 09:23:29;;;;;;;9.73;7.20;;;17.10;61.70;;;;;;5071175;28;20198;-36
2022/08/18 09:26:22;;;;;;;11.35;7.40;;;17.10;61.80;;;;;;5076449;28;20786;-35
2022/08/18 09:28:59;;;;;;;9.65;7.30;;;17.10;61.80;;;;;;5076016;28;20654;-35
2022/08/18 09:31:30;;;;;;;8.38;7.35;;;17.10;61.80;;;;;;5063837;28;20194;-36
2022/08/18 09:34:28;;;;;;;9.93;7.82;;;17.10;61.90;;;;;;5067252;28;20198;-41
2022/08/18 09:37:10;;;;;;;9.50;7.63;;;17.00;62.60;;;;;;5071872;28;20222;-36
2022/08/18 09:42:38;;;;;;;8.70;7.80;;;17.00;61.80;;;;;;5076738;28;20201;-37
2022/08/18 09:45:12;;;;;;;8.65;7.32;;;17.00;61.80;;;;;;5076423;28;20202;-36
2022/08/18 09:48:04;;;;;;;9.85;7.85;;;17.00;61.80;;;;;;5076077;28;20221;-37
2022/08/18 09:50:56;;;;;;;10.55;8.20;;;17.00;61.70;;;;;;5077152;28;20237;-35
2022/08/18 09:54:07;;;;;;;10.27;8.25;;;17.00;62.00;;;;;;5077134;28;20190;-36
2022/08/18 09:57:15;;;;;;;10.38;8.50;;;17.00;62.30;;;;;;5060893;28;20255;-36
2022/08/18 10:00:21;;;;;;;10.65;8.10;;;17.00;62.60;;;;;;5051908;28;20227;-36
2022/08/18 10:03:18;;;;;;;10.40;8.15;;;17.00;63.30;;;;;;5053648;28;20191;-36
2022/08/18 10:06:14;;;;;;;10.07;8.48;;;17.00;62.50;;;;;;5055874;28;20199;-36
2022/08/18 10:09:16;;;;;;;11.23;8.48;;;17.00;62.50;;;;;;5056467;28;20215;-37
2022/08/18 10:11:59;;;;;;;10.70;8.48;;;17.00;62.50;;;;;;5052372;28;20191;-39
2022/08/18 10:14:45;;;;;;;12.02;9.27;;;17.00;62.40;;;;;;5050961;28;20196;-36
2022/08/18 10:17:30;;;;;;;11.75;9.07;;;17.00;62.40;;;;;;5040551;28;20703;-36
2022/08/18 10:20:15;;;;;;;11.90;9.18;;;17.00;62.30;;;;;;5036058;28;20200;-36
2022/08/18 10:22:48;;;;;;;9.50;8.07;;;17.00;62.30;;;;;;5038080;28;20192;-40
2022/08/18 10:25:36;;;;;;;9.93;8.48;;;17.00;62.30;;;;;;5038441;28;20215;-39
2022/08/18 10:28:11;;;;;;;10.32;8.43;;;16.90;62.20;;;;;;5033926;28;20235;-40
2022/08/18 10:31:13;;;;;;;11.10;8.90;;;16.90;62.10;;;;;;5038138;28;20198;-36
2022/08/18 10:34:08;;;;;;;10.02;8.55;;;16.90;62.20;;;;;;5034326;28;20926;-36
2022/08/18 10:36:50;;;;;;;10.07;8.00;;;16.90;62.10;;;;;;5045612;28;20229;-36
2022/08/18 10:39:24;;;;;;;11.48;8.75;;;16.90;62.10;;;;;;5031489;28;20286;-36
2022/08/18 10:42:24;;;;;;;10.25;8.10;;;16.90;62.10;;;;;;5051105;28;20207;-36
2022/08/18 10:45:02;;;;;;;12.80;9.02;;;16.90;62.10;;;;;;5031004;28;20204;-36
2022/08/18 10:47:34;;;;;;;10.70;8.60;;;16.90;62.00;;;;;;5031146;28;20223;-40
2022/08/18 10:50:10;;;;;;;10.43;8.13;;;16.90;62.00;;;;;;5032060;28;20226;-37
2022/08/18 10:53:04;;;;;;;10.60;8.30;;;16.90;62.00;;;;;;5047647;28;20199;-52
2022/08/18 10:55:51;;;;;;;14.18;9.43;;;16.90;62.00;;;;;;5030277;28;20240;-37
2022/08/18 10:58:38;;;;;;;13.85;8.80;;;16.90;62.20;;;;;;5030480;28;20622;-36
2022/08/18 11:01:21;;;;;;;13.95;9.15;;;16.90;62.30;;;;;;5033868;28;20204;-36
2022/08/18 11:04:04;;;;;;;11.23;8.60;;;16.90;62.30;;;;;;5028795;28;20196;-37
2022/08/18 11:06:44;;;;;;;10.00;8.68;;;16.90;62.30;;;;;;5029577;28;20275;-36
2022/08/18 11:09:23;;;;;;;11.57;8.50;;;16.90;62.20;;;;;;5028900;28;20675;-36
2022/08/18 11:11:56;;;;;;;11.95;8.60;;;16.90;62.20;;;;;;5042671;28;20214;-37
2022/08/18 11:14:54;;;;;;;11.43;8.63;;;17.00;62.20;;;;;;5050571;28;20207;-36
2022/08/18 11:17:37;;;;;;;13.20;8.60;;;16.90;62.10;;;;;;5045913;28;20227;-36
2022/08/18 11:20:13;;;;;;;11.65;8.60;;;17.00;62.20;;;;;;5050599;28;20210;-36
2022/08/18 11:22:54;;;;;;;13.95;9.85;;;17.00;62.20;;;;;;5049777;28;20286;-37
2022/08/18 11:25:29;;;;;;;11.90;8.38;;;17.00;62.20;;;;;;5050732;28;20206;-36
2022/08/18 11:28:01;;;;;;;13.40;8.63;;;17.00;62.20;;;;;;5030222;28;20230;-40
2022/08/18 11:30:36;;;;;;;11.50;7.93;;;17.00;62.20;;;;;;5033398;28;20218;-36
2022/08/18 11:33:07;;;;;;;13.80;8.35;;;17.00;62.20;;;;;;5030206;28;20585;-40
2022/08/18 11:35:47;;;;;;;11.50;8.27;;;17.00;62.20;;;;;;5029025;28;20231;-45
2022/08/18 11:38:20;;;;;;;11.90;7.90;;;17.00;62.20;;;;;;5029598;28;20220;-44
2022/08/18 11:40:53;;;;;;;11.77;8.25;;;17.00;62.20;;;;;;5032102;28;20208;-36
2022/08/18 11:43:28;;;;;;;12.98;8.15;;;17.00;62.10;;;;;;5048897;28;20198;-36
2022/08/18 11:46:03;;;;;;;10.18;7.47;;;17.00;62.10;;;;;;5049221;28;20215;-37
2022/08/18 11:48:44;;;;;;;10.70;7.82;;;17.00;62.00;;;;;;5048430;28;20214;-36
2022/08/18 11:51:20;;;;;;;11.15;7.80;;;17.00;62.10;;;;;;5043457;28;20200;-35
2022/08/18 11:54:01;;;;;;;10.63;7.15;;;17.10;62.10;;;;;;5029606;28;20207;-36
2022/08/18 11:56:33;;;;;;;10.02;7.47;;;17.10;62.10;;;;;;5029792;28;20342;-36
2022/08/18 11:59:06;;;;;;;11.00;7.40;;;17.10;62.10;;;;;;5031628;28;20196;-36
2022/08/18 12:01:48;;;;;;;10.27;7.93;;;17.10;62.10;;;;;;5044650;28;20206;-43
2022/08/18 12:04:24;;;;;;;12.90;7.90;;;17.10;62.10;;;;;;5050845;28;20206;-35
2022/08/18 12:07:01;;;;;;;10.80;7.93;;;17.10;62.00;;;;;;5049868;28;20230;-36
2022/08/18 12:09:45;;;;;;;11.50;7.18;;;17.10;62.00;;;;;;5050026;28;20203;-38
2022/08/18 12:12:21;;;;;;;11.63;7.97;;;17.10;62.00;;;;;;5043274;28;20195;-39
2022/08/18 12:14:57;;;;;;;12.23;7.50;;;17.10;62.00;;;;;;5049999;28;20202;-37
2022/08/18 12:17:30;;;;;;;9.77;7.43;;;17.10;61.90;;;;;;5049182;28;20279;-37
2022/08/18 12:20:01;;;;;;;14.60;7.85;;;17.10;61.90;;;;;;5049428;28;20199;-40
2022/08/18 12:22:33;;;;;;;10.30;7.10;;;17.10;62.00;;;;;;5049069;28;20681;-35
2022/08/18 12:25:08;;;;;;;10.68;7.47;;;17.10;62.00;;;;;;5039093;28;20204;-36
2022/08/18 12:27:39;;;;;;;9.68;7.15;;;17.20;62.00;;;;;;5053474;28;20218;-39
2022/08/18 12:30:12;;;;;;;9.38;7.18;;;17.20;61.90;;;;;;5068336;28;20199;-36
2022/08/18 12:32:42;;;;;;;9.95;7.22;;;17.20;61.90;;;;;;5049360;28;20223;-39
2022/08/18 12:35:14;;;;;;;10.93;7.82;;;17.20;61.80;;;;;;5049498;28;20206;-46
2022/08/18 12:37:46;;;;;;;11.63;7.43;;;17.20;61.80;;;;;;5048549;28;20833;-39
2022/08/18 12:40:19;;;;;;;9.13;7.03;;;17.30;61.90;;;;;;5049107;28;20231;-36
2022/08/18 12:42:52;;;;;;;11.05;7.03;;;17.30;61.90;;;;;;5061436;28;20198;-37
2022/08/18 12:45:24;;;;;;;10.30;6.72;;;17.20;61.80;;;;;;5069131;28;20718;-36
2022/08/18 12:47:55;;;;;;;10.60;7.25;;;17.30;61.80;;;;;;5069108;28;20599;-37
2022/08/18 12:50:26;;;;;;;12.05;7.40;;;17.30;61.80;;;;;;5069387;28;20252;-37
2022/08/18 12:52:57;;;;;;;10.43;6.95;;;17.30;61.80;;;;;;5069123;28;20199;-36
2022/08/18 12:55:30;;;;;;;11.48;6.72;;;17.30;61.90;;;;;;5069346;28;20199;-39
2022/08/18 12:58:02;;;;;;;9.35;6.25;;;17.30;61.80;;;;;;5067922;28;20233;-36
2022/08/18 13:00:33;;;;;;;8.73;6.68;;;17.30;61.70;;;;;;5063391;28;20211;-36
2022/08/18 13:03:04;;;;;;;8.27;6.38;;;17.30;61.70;;;;;;5048142;28;20681;-41
2022/08/18 13:05:36;;;;;;;9.98;5.90;;;17.40;61.80;;;;;;5048161;28;20191;-36
2022/08/18 13:08:11;;;;;;;9.40;6.60;;;17.40;61.80;;;;;;5049040;28;20329;-42
2022/08/18 13:10:43;;;;;;;9.48;6.65;;;17.40;61.80;;;;;;5048719;28;20213;-40
2022/08/18 13:13:14;;;;;;;9.50;6.15;;;17.40;62.60;;;;;;5063060;28;20206;-37
2022/08/18 13:15:45;;;;;;;10.05;6.05;;;17.40;61.80;;;;;;5068559;28;20213;-48
2022/08/18 13:18:16;;;;;;;9.40;6.40;;;17.40;61.80;;;;;;5068496;28;20237;-40
2022/08/18 13:20:47;;;;;;;10.55;6.60;;;17.40;61.70;;;;;;5068247;28;20202;-39
2022/08/18 13:23:17;;;;;;;9.48;5.85;;;17.40;61.70;;;;;;5068481;28;20198;-36
2022/08/18 13:25:50;;;;;;;7.53;6.10;;;17.50;61.80;;;;;;5068580;28;20201;-37
2022/08/18 13:28:21;;;;;;;7.85;5.97;;;17.50;61.80;;;;;;5067961;28;20226;-36
2022/08/18 13:30:52;;;;;;;7.68;5.90;;;17.50;61.80;;;;;;5061793;28;20221;-40
2022/08/18 13:33:22;;;;;;;8.05;5.35;;;17.50;61.70;;;;;;5048863;28;20287;-36
2022/08/18 13:35:54;;;;;;;10.23;6.43;;;17.40;61.60;;;;;;5048854;28;20199;-36
2022/08/18 13:38:26;;;;;;;9.82;6.18;;;17.50;61.70;;;;;;5049007;28;20222;-39
2022/08/18 13:41:00;;;;;;;9.77;6.15;;;17.50;61.70;;;;;;5045803;28;20199;-40
2022/08/18 13:43:34;;;;;;;8.90;5.55;;;17.50;61.70;;;;;;5047550;28;20206;-39
2022/08/18 13:46:05;;;;;;;8.18;5.80;;;17.50;61.70;;;;;;5048802;28;20191;-39